Time;durP1;ratioP1;P1;durP2;ratioP2;P2;SDS_P1;SDS_P2;PMS_P1;PMS_P2;Temp;Humidity;BMP_temperature;BMP_pressure;BME280_temperature;BME280_humidity;BME280_pressure;Samples;Min_cycle;Max_cycle;Signal;HPM_P1;HPM_P2
2022/04/12 00:01:33;;;;;;;1.35;1.10;;;18.60;66.40;;;;;;5014294;28;20029;-72
2022/04/12 00:04:00;;;;;;;4.13;1.35;;;18.60;66.40;;;;;;5013229;28;20026;-72
2022/04/12 00:06:26;;;;;;;2.10;1.13;;;18.60;66.50;;;;;;5013177;28;20072;-72
2022/04/12 00:08:52;;;;;;;1.50;0.90;;;18.60;66.50;;;;;;5014321;28;20041;-72
2022/04/12 00:11:17;;;;;;;3.47;1.02;;;18.60;66.50;;;;;;5013337;28;20032;-72
2022/04/12 00:13:43;;;;;;;2.17;1.02;;;18.50;66.50;;;;;;5012474;28;20030;-72
2022/04/12 00:16:09;;;;;;;1.88;1.00;;;18.50;66.50;;;;;;5013948;28;20112;-72
2022/04/12 00:21:39;;;;;;;2.50;0.90;;;18.60;66.70;;;;;;5031755;28;20018;-72
2022/04/12 00:24:05;;;;;;;2.22;1.10;;;18.50;66.70;;;;;;5031651;28;20033;-72
2022/04/12 00:26:32;;;;;;;1.85;1.20;;;18.60;66.80;;;;;;5028469;28;20061;-72
2022/04/12 00:28:58;;;;;;;2.85;1.38;;;18.50;66.80;;;;;;5011453;28;20057;-72
2022/04/12 00:31:23;;;;;;;1.67;1.15;;;18.50;66.70;;;;;;5011754;28;20068;-72
2022/04/12 00:33:49;;;;;;;2.72;1.00;;;18.50;66.80;;;;;;5011854;28;20049;-72
2022/04/12 00:36:15;;;;;;;1.52;0.90;;;18.50;66.80;;;;;;5011546;28;20026;-72
2022/04/12 00:38:40;;;;;;;2.42;1.40;;;18.50;66.90;;;;;;5011790;28;20553;-72
2022/04/12 00:41:08;;;;;;;1.48;0.95;;;18.50;66.80;;;;;;5011413;28;20033;-72
2022/04/12 00:43:35;;;;;;;1.48;1.05;;;18.50;66.90;;;;;;5011382;28;20022;-72
2022/04/12 00:46:01;;;;;;;1.17;0.95;;;18.50;67.00;;;;;;5009040;28;20038;-72
2022/04/12 00:48:28;;;;;;;1.15;0.90;;;18.50;66.90;;;;;;5011495;28;20034;-72
2022/04/12 00:50:53;;;;;;;7.40;1.40;;;18.50;67.00;;;;;;5011531;28;20515;-72
2022/04/12 00:53:19;;;;;;;3.30;1.20;;;18.50;67.00;;;;;;5029906;28;20048;-72
2022/04/12 00:55:45;;;;;;;2.08;1.10;;;18.50;67.00;;;;;;5031967;28;20025;-72
2022/04/12 00:58:10;;;;;;;1.30;1.20;;;18.50;67.00;;;;;;5032920;28;20029;-72
2022/04/12 01:00:36;;;;;;;2.00;1.02;;;18.50;67.00;;;;;;5015677;28;20032;-72
2022/04/12 01:03:02;;;;;;;2.35;1.17;;;18.50;67.10;;;;;;5033038;28;20034;-72
2022/04/12 01:05:28;;;;;;;4.10;1.30;;;18.50;67.00;;;;;;5033244;28;20032;-72
2022/04/12 01:07:54;;;;;;;4.50;1.20;;;18.50;67.10;;;;;;5033061;28;20032;-72
2022/04/12 01:10:20;;;;;;;2.05;1.20;;;18.50;67.10;;;;;;5031691;28;20026;-72
2022/04/12 01:12:46;;;;;;;2.53;1.00;;;18.50;67.20;;;;;;5032851;28;20033;-72
2022/04/12 01:15:17;;;;;;;1.60;1.10;;;18.50;67.20;;;;;;5015281;28;20029;-72
2022/04/12 01:17:43;;;;;;;2.08;1.00;;;18.50;67.20;;;;;;5031567;28;20389;-72
2022/04/12 01:20:10;;;;;;;3.22;1.33;;;18.50;67.20;;;;;;5032580;28;20026;-72
2022/04/12 01:22:41;;;;;;;4.38;1.30;;;18.50;67.30;;;;;;5032989;28;20033;-72
2022/04/12 01:25:07;;;;;;;1.90;1.10;;;18.50;67.30;;;;;;5014198;28;20120;-72
2022/04/12 01:27:32;;;;;;;1.52;1.10;;;18.50;67.30;;;;;;5019812;28;20149;-72
2022/04/12 01:29:58;;;;;;;1.52;1.00;;;18.50;67.40;;;;;;5013066;28;20022;-72
2022/04/12 01:32:25;;;;;;;1.38;1.08;;;18.50;67.40;;;;;;5011718;28;20022;-72
2022/04/12 01:34:50;;;;;;;1.70;1.02;;;18.50;67.40;;;;;;5012734;28;20026;-72
2022/04/12 01:37:16;;;;;;;1.42;1.05;;;18.50;67.40;;;;;;5011709;28;20021;-72
2022/04/12 01:39:42;;;;;;;2.05;1.08;;;18.50;67.50;;;;;;5011671;28;20040;-72
2022/04/12 01:42:07;;;;;;;1.48;1.10;;;18.50;67.50;;;;;;5012557;28;20080;-72
2022/04/12 01:44:33;;;;;;;2.20;1.35;;;18.50;67.40;;;;;;5012777;28;20033;-72
2022/04/12 01:46:59;;;;;;;3.95;1.30;;;18.50;67.50;;;;;;5012386;28;20054;-72
2022/04/12 01:49:24;;;;;;;2.15;0.93;;;18.50;67.50;;;;;;5011436;28;20026;-72
2022/04/12 01:51:50;;;;;;;2.15;1.10;;;18.50;67.50;;;;;;5011450;28;20092;-72
2022/04/12 01:54:15;;;;;;;1.77;1.20;;;18.50;67.60;;;;;;5011494;28;20034;-72
2022/04/12 01:56:41;;;;;;;1.85;1.17;;;18.50;67.50;;;;;;5012495;28;20132;-72
2022/04/12 01:59:07;;;;;;;1.45;1.27;;;18.50;68.60;;;;;;5012517;28;20050;-72
2022/04/12 02:01:33;;;;;;;1.98;0.93;;;18.50;67.50;;;;;;5011395;28;20428;-72
2022/04/12 02:03:58;;;;;;;2.88;1.17;;;18.40;67.50;;;;;;5011522;28;20026;-72
2022/04/12 02:06:24;;;;;;;1.98;1.25;;;18.50;67.70;;;;;;5012196;28;20041;-72
2022/04/12 02:08:50;;;;;;;1.33;1.00;;;18.40;67.60;;;;;;5012546;28;20037;-72
2022/04/12 02:11:15;;;;;;;1.25;1.10;;;18.50;67.60;;;;;;5012237;28;20033;-72
2022/04/12 02:13:41;;;;;;;2.10;1.20;;;18.40;67.60;;;;;;5011170;28;20026;-72
2022/04/12 02:16:06;;;;;;;1.30;0.88;;;18.40;67.60;;;;;;5012424;28;20104;-72
2022/04/12 02:18:32;;;;;;;1.48;1.05;;;18.40;67.70;;;;;;5012700;28;20100;-72
2022/04/12 02:20:58;;;;;;;1.67;1.00;;;18.40;67.70;;;;;;5030884;28;20503;-72
2022/04/12 02:23:23;;;;;;;2.08;1.20;;;18.40;67.70;;;;;;5030874;28;20026;-72
2022/04/12 02:25:49;;;;;;;1.25;1.15;;;18.40;67.70;;;;;;5031791;28;20108;-72
2022/04/12 02:28:15;;;;;;;1.20;1.05;;;18.40;67.70;;;;;;5014741;28;20040;-72
2022/04/12 02:30:41;;;;;;;1.70;0.85;;;18.40;67.70;;;;;;5012377;28;20034;-72
2022/04/12 02:33:06;;;;;;;2.45;1.05;;;18.40;67.80;;;;;;5011124;28;20589;-72
2022/04/12 02:35:32;;;;;;;1.67;1.25;;;18.40;67.80;;;;;;5013093;28;20030;-72
2022/04/12 02:37:58;;;;;;;1.80;1.00;;;18.40;67.80;;;;;;5016027;28;20072;-72
2022/04/12 02:40:23;;;;;;;1.75;0.95;;;18.40;67.80;;;;;;5015737;28;20492;-72
2022/04/12 02:42:49;;;;;;;2.17;1.20;;;18.40;67.80;;;;;;5015992;28;20527;-72
2022/04/12 02:45:15;;;;;;;0.70;0.68;;;18.40;67.90;;;;;;5015833;28;20485;-72
2022/04/12 02:47:40;;;;;;;1.50;1.10;;;18.40;67.90;;;;;;5015829;28;20049;-72
2022/04/12 02:50:06;;;;;;;1.27;1.00;;;18.40;67.90;;;;;;5014579;28;20033;-72
2022/04/12 02:52:32;;;;;;;1.70;1.23;;;18.40;68.00;;;;;;5016013;28;20029;-72
2022/04/12 02:54:57;;;;;;;2.72;1.30;;;18.40;68.00;;;;;;5015481;28;20030;-72
2022/04/12 02:57:23;;;;;;;1.25;0.85;;;18.40;68.00;;;;;;5015563;28;20396;-72
2022/04/12 02:59:49;;;;;;;2.78;1.20;;;18.40;68.00;;;;;;5015870;28;20033;-72
2022/04/12 03:02:14;;;;;;;1.88;1.23;;;18.40;68.00;;;;;;5015472;28;20030;-72
2022/04/12 03:04:40;;;;;;;2.58;1.00;;;18.40;68.00;;;;;;5015714;28;20022;-72
2022/04/12 03:07:07;;;;;;;2.10;1.15;;;18.40;68.00;;;;;;5014177;28;20029;-72
2022/04/12 03:09:32;;;;;;;2.08;1.20;;;18.40;68.00;;;;;;5014044;28;20026;-72
2022/04/12 03:11:58;;;;;;;1.10;0.90;;;18.40;68.00;;;;;;5015644;28;20030;-72
2022/04/12 03:14:24;;;;;;;1.88;1.25;;;18.40;68.10;;;;;;5013972;28;20030;-72
2022/04/12 03:16:49;;;;;;;2.25;1.20;;;18.40;68.20;;;;;;5015327;28;20084;-72
2022/04/12 03:19:15;;;;;;;2.25;0.95;;;18.30;68.10;;;;;;5022601;28;20033;-72
2022/04/12 03:21:42;;;;;;;1.48;0.90;;;18.40;68.20;;;;;;5035226;28;20063;-72
2022/04/12 03:24:08;;;;;;;2.00;1.00;;;18.40;68.20;;;;;;5035002;28;20034;-72
2022/04/12 03:26:34;;;;;;;2.25;1.40;;;18.40;69.30;;;;;;5031276;28;20014;-72
2022/04/12 03:29:00;;;;;;;2.05;0.93;;;18.40;68.30;;;;;;5014050;28;20033;-72
2022/04/12 03:31:26;;;;;;;2.40;1.10;;;18.40;68.20;;;;;;5014907;28;20033;-72
2022/04/12 03:33:51;;;;;;;0.98;0.80;;;18.40;68.30;;;;;;5015178;28;20037;-72
2022/04/12 03:36:17;;;;;;;1.00;0.90;;;18.30;68.20;;;;;;5014794;28;20033;-72
2022/04/12 03:38:48;;;;;;;2.03;1.00;;;18.30;68.20;;;;;;5014675;28;20026;-72
2022/04/12 03:41:22;;;;;;;1.35;1.02;;;18.40;68.30;;;;;;5014783;28;20018;-72
2022/04/12 03:43:48;;;;;;;1.15;1.00;;;18.30;68.40;;;;;;5014767;28;20030;-72
2022/04/12 03:46:14;;;;;;;1.88;1.35;;;18.30;68.30;;;;;;5014595;28;20052;-72
2022/04/12 03:48:40;;;;;;;2.65;1.05;;;18.30;68.30;;;;;;5014026;28;20025;-72
2022/04/12 03:51:05;;;;;;;4.25;1.10;;;18.30;68.30;;;;;;5013638;28;20033;-72
2022/04/12 03:53:31;;;;;;;1.45;0.90;;;18.30;68.30;;;;;;5013170;28;20084;-72
2022/04/12 03:55:57;;;;;;;1.17;1.08;;;18.30;68.40;;;;;;5014752;28;20033;-72
2022/04/12 03:58:23;;;;;;;2.78;1.55;;;18.30;68.40;;;;;;5013223;28;20037;-72
2022/04/12 04:00:49;;;;;;;1.83;1.00;;;18.30;68.40;;;;;;5013461;28;20022;-72
2022/04/12 04:03:15;;;;;;;1.00;0.90;;;18.30;68.50;;;;;;5013508;28;20101;-72
2022/04/12 04:05:41;;;;;;;1.20;1.10;;;18.30;68.50;;;;;;5013207;28;20022;-72
2022/04/12 04:08:07;;;;;;;1.13;0.93;;;18.30;68.50;;;;;;5013017;28;20036;-72
2022/04/12 04:10:32;;;;;;;6.63;1.25;;;18.30;68.50;;;;;;5014251;28;20037;-72
2022/04/12 04:12:58;;;;;;;1.13;1.00;;;18.30;68.50;;;;;;5014236;28;20400;-72
2022/04/12 04:15:24;;;;;;;1.30;1.00;;;18.30;68.50;;;;;;5014199;28;20029;-72
2022/04/12 04:17:49;;;;;;;1.63;0.85;;;18.30;68.50;;;;;;5012970;28;20030;-72
2022/04/12 04:20:16;;;;;;;1.58;1.05;;;18.30;68.50;;;;;;5029807;28;20032;-72
2022/04/12 04:22:42;;;;;;;1.13;1.00;;;18.30;68.50;;;;;;5032542;28;20387;-72
2022/04/12 04:25:09;;;;;;;1.15;0.70;;;18.30;68.50;;;;;;5033959;28;20030;-72
2022/04/12 04:27:35;;;;;;;3.13;1.00;;;18.30;68.50;;;;;;5021859;28;20025;-72
2022/04/12 04:30:03;;;;;;;1.10;1.00;;;18.30;68.60;;;;;;5013063;28;20022;-72
2022/04/12 04:32:28;;;;;;;1.52;0.93;;;18.30;68.60;;;;;;5012742;28;20030;-72
2022/04/12 04:34:54;;;;;;;1.73;1.00;;;18.30;68.60;;;;;;5012664;28;20131;-72
2022/04/12 04:37:20;;;;;;;1.40;1.10;;;18.30;68.60;;;;;;5013494;28;20496;-72
2022/04/12 04:39:45;;;;;;;2.33;1.33;;;18.30;68.60;;;;;;5012470;28;20121;-72
2022/04/12 04:42:11;;;;;;;0.80;0.80;;;18.30;68.60;;;;;;5012412;28;20072;-72
2022/04/12 04:44:37;;;;;;;2.20;1.05;;;18.30;68.60;;;;;;5045227;28;20021;-72
2022/04/12 04:47:03;;;;;;;1.17;0.93;;;18.30;68.70;;;;;;5032506;28;20103;-73
2022/04/12 04:49:29;;;;;;;1.20;1.00;;;18.30;68.70;;;;;;5033672;28;20033;-72
2022/04/12 04:51:54;;;;;;;1.13;0.90;;;18.20;68.70;;;;;;5032409;28;20045;-72
2022/04/12 04:54:20;;;;;;;1.52;0.95;;;18.30;68.70;;;;;;5030368;28;20510;-72
2022/04/12 04:56:45;;;;;;;2.33;0.98;;;18.30;68.60;;;;;;5063587;28;20026;-72
2022/04/12 04:59:12;;;;;;;1.02;0.90;;;18.30;68.70;;;;;;5032561;28;20033;-72
2022/04/12 05:01:38;;;;;;;2.50;1.00;;;18.30;69.30;;;;;;5031816;28;20022;-72
2022/04/12 05:04:04;;;;;;;1.58;0.90;;;18.20;69.60;;;;;;5032275;28;20037;-72
2022/04/12 05:06:29;;;;;;;3.13;1.20;;;18.20;69.70;;;;;;5063562;28;20033;-72
2022/04/12 05:08:55;;;;;;;1.23;1.02;;;18.20;68.60;;;;;;5032220;28;20492;-72
2022/04/12 05:11:21;;;;;;;3.20;1.23;;;18.20;68.60;;;;;;5032493;28;20025;-72
2022/04/12 05:13:46;;;;;;;1.13;1.02;;;18.20;68.60;;;;;;5032651;28;20408;-72
2022/04/12 05:16:12;;;;;;;1.83;0.90;;;18.20;68.70;;;;;;5032984;28;20151;-72
2022/04/12 05:18:37;;;;;;;2.60;0.90;;;18.20;68.70;;;;;;5064590;28;20103;-72
2022/04/12 05:21:03;;;;;;;1.60;1.30;;;18.20;68.70;;;;;;5031384;28;20483;-72
2022/04/12 05:23:29;;;;;;;1.27;0.90;;;18.20;68.70;;;;;;5032758;28;20028;-72
2022/04/12 05:25:55;;;;;;;2.08;1.08;;;18.20;68.70;;;;;;5031472;28;20395;-72
2022/04/12 05:28:21;;;;;;;4.03;1.00;;;18.20;68.70;;;;;;5014608;28;20024;-72
2022/04/12 05:30:47;;;;;;;2.50;1.00;;;18.20;68.70;;;;;;5012999;28;20026;-72
2022/04/12 05:33:13;;;;;;;2.58;1.10;;;18.20;68.70;;;;;;5011635;28;20037;-72
2022/04/12 05:35:39;;;;;;;0.80;0.70;;;18.20;68.70;;;;;;5011477;28;20076;-72
2022/04/12 05:38:06;;;;;;;2.22;1.27;;;18.20;68.70;;;;;;5011727;28;20030;-72
2022/04/12 05:40:32;;;;;;;2.10;1.30;;;18.20;68.70;;;;;;5012677;28;20109;-72
2022/04/12 05:42:58;;;;;;;1.52;1.02;;;18.20;68.70;;;;;;5011540;28;20459;-72
2022/04/12 05:45:23;;;;;;;1.60;1.02;;;18.20;68.70;;;;;;5011481;28;20028;-72
2022/04/12 05:47:50;;;;;;;1.20;0.90;;;18.20;68.90;;;;;;5026082;28;20142;-72
2022/04/12 05:50:25;;;;;;;1.45;0.98;;;18.20;68.70;;;;;;5030061;28;20052;-72
2022/04/12 05:52:51;;;;;;;1.90;1.30;;;18.20;68.90;;;;;;5029991;28;20503;-72
2022/04/12 05:55:18;;;;;;;2.35;1.08;;;18.10;68.80;;;;;;5062629;28;20022;-72
2022/04/12 05:57:59;;;;;;;1.48;1.00;;;18.20;68.90;;;;;;5011221;28;20028;-72
2022/04/12 06:00:29;;;;;;;1.65;1.00;;;18.20;68.90;;;;;;5030377;28;20068;-72
2022/04/12 06:02:55;;;;;;;1.60;1.02;;;18.20;68.90;;;;;;5045447;28;20426;-73
2022/04/12 06:05:25;;;;;;;2.42;1.10;;;18.10;68.90;;;;;;5046548;28;20025;-73
2022/04/12 06:07:50;;;;;;;1.77;0.98;;;18.20;68.90;;;;;;5031369;28;20048;-72
2022/04/12 06:10:17;;;;;;;2.95;1.20;;;18.20;68.90;;;;;;5031336;28;20415;-72
2022/04/12 06:12:43;;;;;;;2.17;1.10;;;18.20;68.90;;;;;;5035223;28;20029;-74
2022/04/12 06:15:09;;;;;;;3.90;1.15;;;18.20;68.90;;;;;;5036354;28;20022;-73
2022/04/12 06:17:35;;;;;;;2.35;1.30;;;18.20;68.90;;;;;;5034759;28;20025;-73
2022/04/12 06:20:06;;;;;;;5.72;1.30;;;18.20;68.80;;;;;;5034947;28;20438;-73
2022/04/12 06:22:32;;;;;;;2.03;0.85;;;18.10;68.60;;;;;;5035116;28;20585;-73
2022/04/12 06:24:57;;;;;;;3.40;1.40;;;18.10;68.60;;;;;;5035011;28;20100;-73
2022/04/12 06:27:37;;;;;;;2.58;1.27;;;18.10;68.50;;;;;;5024924;28;20508;-73
2022/04/12 06:30:13;;;;;;;3.85;1.50;;;18.10;68.40;;;;;;5015249;28;20021;-73
2022/04/12 06:32:39;;;;;;;3.67;1.60;;;18.10;68.40;;;;;;5014592;28;20045;-73
2022/04/12 06:35:06;;;;;;;2.95;1.58;;;18.00;68.40;;;;;;5015004;28;20030;-73
2022/04/12 06:37:32;;;;;;;4.03;1.42;;;18.00;68.30;;;;;;5014819;28;20025;-73
2022/04/12 06:39:58;;;;;;;3.05;1.38;;;18.00;68.30;;;;;;5015017;28;20026;-73
2022/04/12 06:42:24;;;;;;;6.60;1.80;;;18.00;68.20;;;;;;5014847;28;20495;-73
2022/04/12 06:44:50;;;;;;;4.60;1.52;;;18.00;68.20;;;;;;5014704;28;20025;-73
2022/04/12 06:47:16;;;;;;;4.13;1.70;;;18.00;68.20;;;;;;5014445;28;20045;-73
2022/04/12 06:49:49;;;;;;;4.95;1.45;;;18.00;68.10;;;;;;5014557;28;20026;-73
2022/04/12 06:52:16;;;;;;;5.45;1.75;;;18.00;67.90;;;;;;5014720;28;20029;-73
2022/04/12 06:54:42;;;;;;;5.60;1.63;;;17.90;68.00;;;;;;5014665;28;20030;-74
2022/04/12 06:57:07;;;;;;;4.15;1.80;;;17.90;67.90;;;;;;5014474;28;20431;-74
2022/04/12 06:59:33;;;;;;;5.45;1.67;;;17.90;67.80;;;;;;5014256;28;20038;-74
2022/04/12 07:01:59;;;;;;;4.35;1.50;;;17.90;67.80;;;;;;5013525;28;20087;-74
2022/04/12 07:04:25;;;;;;;4.05;1.55;;;17.90;67.90;;;;;;5014342;28;20018;-74
2022/04/12 07:06:50;;;;;;;5.85;1.95;;;17.90;67.80;;;;;;5015405;28;20022;-74
2022/04/12 07:09:20;;;;;;;5.32;1.63;;;17.90;67.80;;;;;;5014428;28;20032;-74
2022/04/12 07:11:49;;;;;;;7.18;1.98;;;17.90;67.80;;;;;;5031733;28;20029;-74
2022/04/12 07:14:15;;;;;;;6.20;2.13;;;17.90;67.80;;;;;;5017516;28;20013;-74
2022/04/12 07:16:41;;;;;;;6.55;2.03;;;17.90;67.70;;;;;;5034584;28;20103;-74
2022/04/12 07:19:06;;;;;;;3.95;2.13;;;17.90;67.70;;;;;;5031243;28;20061;-74
2022/04/12 07:21:32;;;;;;;9.43;2.22;;;17.90;67.70;;;;;;5034502;28;20057;-74
2022/04/12 07:23:59;;;;;;;8.25;1.92;;;17.80;67.60;;;;;;5034374;28;20017;-74
2022/04/12 07:26:27;;;;;;;7.20;1.92;;;17.80;67.50;;;;;;5033841;28;20022;-74
2022/04/12 07:28:53;;;;;;;4.78;2.00;;;17.80;67.50;;;;;;5034684;28;20029;-74
2022/04/12 07:31:19;;;;;;;6.28;1.90;;;17.80;67.50;;;;;;5033648;28;20040;-74
2022/04/12 07:33:44;;;;;;;5.20;1.75;;;17.80;67.50;;;;;;5034856;28;20075;-74
2022/04/12 07:36:10;;;;;;;2.80;1.70;;;17.80;67.40;;;;;;5017239;28;20029;-74
2022/04/12 07:38:36;;;;;;;5.70;2.00;;;17.80;67.40;;;;;;5034659;28;20079;-74
2022/04/12 07:41:01;;;;;;;6.47;2.33;;;17.80;67.40;;;;;;5033630;28;20101;-74
2022/04/12 07:43:27;;;;;;;6.35;1.90;;;17.80;67.30;;;;;;5016939;28;20167;-74
2022/04/12 07:45:53;;;;;;;8.02;1.98;;;17.80;67.30;;;;;;5032891;28;20080;-74
2022/04/12 07:48:18;;;;;;;6.93;1.95;;;17.80;67.30;;;;;;5034508;28;20038;-74
2022/04/12 07:50:44;;;;;;;7.18;2.10;;;17.70;67.20;;;;;;5034494;28;20021;-74
2022/04/12 07:53:10;;;;;;;5.80;1.80;;;17.80;67.30;;;;;;5034419;28;20052;-74
2022/04/12 07:55:35;;;;;;;4.82;2.30;;;17.80;67.30;;;;;;5033219;28;20431;-74
2022/04/12 07:58:01;;;;;;;5.68;2.17;;;17.80;67.20;;;;;;5034342;28;20030;-74
2022/04/12 08:00:27;;;;;;;5.45;2.00;;;17.70;67.10;;;;;;5033910;28;20733;-74
2022/04/12 08:02:53;;;;;;;5.25;2.10;;;17.80;67.20;;;;;;5034097;28;20502;-74
2022/04/12 08:05:19;;;;;;;8.02;2.10;;;17.80;67.10;;;;;;5034429;28;20018;-74
2022/04/12 08:07:47;;;;;;;4.88;2.10;;;17.70;67.00;;;;;;5034144;28;20028;-74
2022/04/12 08:10:19;;;;;;;5.43;2.00;;;17.70;68.00;;;;;;5034023;28;20025;-74
2022/04/12 08:12:45;;;;;;;3.28;1.50;;;17.70;67.00;;;;;;5033018;28;20057;-74
2022/04/12 08:15:11;;;;;;;4.18;1.67;;;17.70;67.00;;;;;;5032855;28;20388;-74
2022/04/12 08:17:37;;;;;;;3.92;1.80;;;17.70;67.00;;;;;;5032711;28;20018;-74
2022/04/12 08:20:03;;;;;;;6.57;1.80;;;17.70;66.90;;;;;;5015090;28;20491;-74
2022/04/12 08:22:29;;;;;;;7.50;1.75;;;17.70;67.00;;;;;;5014007;28;20476;-74
2022/04/12 08:24:54;;;;;;;5.78;1.77;;;17.70;66.90;;;;;;5014071;28;20018;-74
2022/04/12 08:27:20;;;;;;;5.30;1.63;;;17.70;66.90;;;;;;5012728;28;20049;-74
2022/04/12 08:29:46;;;;;;;5.03;1.50;;;17.70;66.80;;;;;;5013925;28;20034;-74
2022/04/12 08:32:12;;;;;;;4.40;1.83;;;17.70;66.80;;;;;;5014027;28;20075;-74
2022/04/12 08:34:37;;;;;;;5.07;1.77;;;17.70;66.80;;;;;;5012510;28;20025;-74
2022/04/12 08:37:05;;;;;;;4.93;1.52;;;17.70;66.80;;;;;;5012670;28;20053;-74
2022/04/12 08:39:31;;;;;;;4.40;1.60;;;17.70;66.80;;;;;;5013806;28;20045;-74
2022/04/12 08:41:58;;;;;;;3.78;1.65;;;17.60;66.70;;;;;;5013609;28;20031;-73
2022/04/12 08:44:24;;;;;;;3.97;1.80;;;17.70;66.70;;;;;;5012594;28;20028;-73
2022/04/12 08:46:49;;;;;;;5.20;1.98;;;17.60;66.60;;;;;;5012212;28;20053;-74
2022/04/12 08:49:15;;;;;;;4.50;1.75;;;17.60;66.60;;;;;;5012650;28;20110;-73
2022/04/12 08:51:41;;;;;;;7.13;1.60;;;17.60;66.60;;;;;;5012460;28;20048;-74
2022/04/12 08:54:09;;;;;;;2.78;1.45;;;17.60;66.60;;;;;;5012243;28;20022;-73
2022/04/12 08:56:35;;;;;;;5.45;1.88;;;17.60;66.60;;;;;;5012301;28;20041;-74
2022/04/12 08:59:01;;;;;;;4.45;1.70;;;17.60;66.50;;;;;;5012053;28;20025;-73
2022/04/12 09:01:27;;;;;;;4.18;1.83;;;17.60;66.50;;;;;;5012436;28;20021;-73
2022/04/12 09:03:54;;;;;;;3.38;1.30;;;17.60;66.50;;;;;;5012184;28;20500;-74
2022/04/12 09:06:20;;;;;;;5.32;1.77;;;17.60;66.50;;;;;;5013458;28;20030;-74
2022/04/12 09:08:45;;;;;;;4.95;1.90;;;17.60;66.50;;;;;;5013266;28;20034;-74
2022/04/12 09:11:13;;;;;;;4.15;1.58;;;17.60;66.50;;;;;;5023105;28;20043;-74
2022/04/12 09:13:40;;;;;;;7.25;1.80;;;17.60;66.40;;;;;;5031737;28;20017;-74
2022/04/12 09:16:08;;;;;;;3.50;1.30;;;17.60;66.40;;;;;;5032867;28;20021;-74
2022/04/12 09:18:35;;;;;;;6.32;2.00;;;17.60;66.40;;;;;;5025775;28;20030;-73
2022/04/12 09:21:21;;;;;;;3.75;1.33;;;17.60;66.40;;;;;;5011685;28;20025;-74
2022/04/12 09:23:47;;;;;;;4.55;1.60;;;17.60;66.10;;;;;;5011689;28;20018;-73
2022/04/12 09:26:21;;;;;;;5.18;1.70;;;17.60;66.40;;;;;;5012850;28;20029;-74
2022/04/12 09:28:47;;;;;;;7.93;1.92;;;17.60;66.30;;;;;;5013080;28;20028;-74
2022/04/12 09:31:14;;;;;;;3.67;1.42;;;17.50;66.30;;;;;;5011846;28;20029;-74
2022/04/12 09:33:41;;;;;;;4.25;1.85;;;17.50;66.40;;;;;;5011754;28;20057;-74
2022/04/12 09:36:06;;;;;;;4.40;1.48;;;17.50;66.30;;;;;;5011412;28;20018;-73
2022/04/12 09:38:36;;;;;;;3.35;1.60;;;17.50;66.40;;;;;;5013287;28;20037;-73
2022/04/12 09:41:19;;;;;;;3.72;1.35;;;17.50;66.20;;;;;;5011723;28;20022;-73
2022/04/12 09:43:57;;;;;;;;;;;17.60;66.10;;;;;;5012174;28;20022;-73
2022/04/12 09:46:23;;;;;;;3.30;1.50;;;17.40;66.00;;;;;;5011975;28;19924;-74
2022/04/12 09:48:50;;;;;;;4.00;1.45;;;17.40;66.50;;;;;;5011325;28;20101;-73
2022/04/12 09:51:16;;;;;;;2.42;1.40;;;17.40;66.40;;;;;;5011647;28;20028;-73
2022/04/12 09:53:42;;;;;;;3.63;1.35;;;17.50;66.40;;;;;;5012634;28;20021;-73
2022/04/12 09:56:24;;;;;;;4.32;1.35;;;17.40;66.30;;;;;;5011308;28;20042;-73
2022/04/12 09:58:54;;;;;;;2.97;1.70;;;17.50;66.30;;;;;;5012296;28;20091;-73
2022/04/12 10:01:21;;;;;;;6.38;1.70;;;17.50;66.30;;;;;;5011637;28;20022;-73
2022/04/12 10:03:51;;;;;;;4.10;1.85;;;17.40;66.20;;;;;;5011603;28;20069;-73
2022/04/12 10:06:19;;;;;;;3.53;1.40;;;17.50;66.20;;;;;;5012601;28;20535;-73
2022/04/12 10:08:46;;;;;;;3.60;1.50;;;17.40;66.20;;;;;;5011492;28;20026;-74
2022/04/12 10:11:12;;;;;;;2.00;1.10;;;17.40;66.30;;;;;;5021337;28;20034;-73
2022/04/12 10:13:38;;;;;;;4.22;1.55;;;17.40;66.20;;;;;;5030960;28;20017;-73
2022/04/12 10:16:05;;;;;;;4.25;1.33;;;17.50;66.20;;;;;;5032214;28;20116;-73
2022/04/12 10:18:31;;;;;;;4.93;1.50;;;17.40;66.10;;;;;;5026892;28;20058;-73
2022/04/12 10:20:58;;;;;;;2.90;1.48;;;17.50;66.20;;;;;;5011328;28;20030;-73
2022/04/12 10:23:25;;;;;;;2.85;1.20;;;17.40;66.10;;;;;;5010918;28;20416;-73
2022/04/12 10:25:55;;;;;;;3.70;1.27;;;17.40;66.10;;;;;;5011198;28;20022;-73
2022/04/12 10:28:21;;;;;;;2.72;1.38;;;17.40;66.00;;;;;;5011184;28;20018;-73
2022/04/12 10:30:47;;;;;;;2.90;1.40;;;17.40;66.10;;;;;;4994771;28;20381;-73
2022/04/12 10:33:15;;;;;;;3.03;1.50;;;17.40;66.00;;;;;;5011106;28;20528;-73
2022/04/12 10:35:44;;;;;;;3.20;1.13;;;17.40;66.00;;;;;;5012168;28;20485;-73
2022/04/12 10:38:10;;;;;;;2.83;1.20;;;17.40;66.00;;;;;;5011896;28;20543;-73
2022/04/12 10:40:36;;;;;;;2.30;1.08;;;17.40;66.00;;;;;;5011132;28;20489;-73
2022/04/12 10:43:02;;;;;;;3.55;1.58;;;17.40;66.00;;;;;;5011005;28;20029;-73
2022/04/12 10:45:34;;;;;;;2.78;1.20;;;17.40;66.00;;;;;;5010901;28;20037;-74
2022/04/12 10:48:00;;;;;;;5.30;1.63;;;17.50;66.00;;;;;;5010913;28;20116;-73
2022/04/12 10:50:26;;;;;;;2.58;1.42;;;17.40;66.00;;;;;;5011155;28;20516;-73
2022/04/12 10:52:52;;;;;;;3.13;1.35;;;17.40;66.00;;;;;;5010805;28;20026;-73
2022/04/12 10:55:23;;;;;;;2.70;1.25;;;17.40;65.90;;;;;;5010915;28;20032;-73
2022/04/12 10:57:50;;;;;;;3.28;1.30;;;17.40;65.90;;;;;;5013662;28;20029;-73
2022/04/12 11:00:17;;;;;;;3.65;1.33;;;17.40;66.00;;;;;;5015497;28;20018;-73
2022/04/12 11:02:52;;;;;;;2.75;1.33;;;17.40;65.90;;;;;;4998429;28;20539;-73
2022/04/12 11:05:39;;;;;;;3.00;1.20;;;17.40;65.80;;;;;;5015749;28;20381;-73
2022/04/12 11:08:14;;;;;;;2.42;1.42;;;17.40;65.70;;;;;;5015112;28;20492;-73
2022/04/12 11:10:54;;;;;;;2.45;1.40;;;17.40;66.00;;;;;;5020355;28;20030;-73
2022/04/12 11:13:20;;;;;;;3.33;1.30;;;17.40;65.90;;;;;;5035189;28;20032;-73
2022/04/12 11:15:54;;;;;;;2.05;1.10;;;17.40;66.00;;;;;;5034113;28;20025;-73
2022/04/12 11:18:19;;;;;;;4.72;1.30;;;17.40;65.90;;;;;;5030006;28;20053;-73
2022/04/12 11:20:57;;;;;;;1.25;1.02;;;17.40;65.90;;;;;;5014223;28;20099;-73
2022/04/12 11:23:23;;;;;;;3.45;1.10;;;17.30;65.80;;;;;;5014034;28;20018;-73
2022/04/12 11:25:50;;;;;;;1.70;1.05;;;17.30;65.80;;;;;;5014029;28;20080;-73
2022/04/12 11:28:23;;;;;;;1.33;0.98;;;17.30;65.80;;;;;;5013780;28;20443;-73
2022/04/12 11:30:53;;;;;;;;;;;17.40;65.80;;;;;;5014482;28;20022;-73
2022/04/12 11:33:18;;;;;;;3.22;2.03;;;17.30;65.70;;;;;;5015109;28;19905;-73
2022/04/12 11:35:44;;;;;;;3.22;1.35;;;17.30;66.10;;;;;;5015037;28;20036;-73
2022/04/12 11:38:10;;;;;;;2.55;1.27;;;17.30;66.00;;;;;;5013503;28;20112;-73
2022/04/12 11:40:41;;;;;;;3.45;1.40;;;17.30;65.90;;;;;;5015061;28;20064;-73
2022/04/12 11:43:25;;;;;;;3.63;1.20;;;17.30;65.90;;;;;;5013895;28;20021;-73
2022/04/12 11:46:03;;;;;;;2.83;1.13;;;17.40;65.90;;;;;;5013465;28;20125;-73
2022/04/12 11:48:30;;;;;;;3.08;1.30;;;17.30;65.80;;;;;;5013778;28;20025;-73
2022/04/12 11:50:57;;;;;;;2.33;1.70;;;17.30;65.90;;;;;;5014707;28;20108;-73
2022/04/12 11:53:24;;;;;;;1.92;1.20;;;17.30;65.90;;;;;;5013432;28;20440;-73
2022/04/12 11:55:49;;;;;;;3.60;1.05;;;17.30;65.80;;;;;;5013608;28;20037;-73
2022/04/12 11:58:18;;;;;;;1.88;1.10;;;17.30;65.80;;;;;;5013264;28;20026;-73
2022/04/12 12:00:43;;;;;;;2.03;1.52;;;17.30;65.70;;;;;;5013531;28;20113;-73
2022/04/12 12:03:18;;;;;;;1.95;1.20;;;17.30;65.70;;;;;;5014733;28;20060;-73
2022/04/12 12:05:45;;;;;;;1.73;1.15;;;17.30;65.70;;;;;;5013220;28;20029;-73
2022/04/12 12:08:11;;;;;;;3.47;1.30;;;17.30;65.70;;;;;;5013672;28;20407;-73
2022/04/12 12:10:37;;;;;;;3.53;1.50;;;17.30;65.70;;;;;;5018632;28;20031;-73
2022/04/12 12:13:06;;;;;;;3.83;1.08;;;17.30;65.70;;;;;;5032968;28;20451;-73
2022/04/12 12:15:33;;;;;;;2.53;0.90;;;17.30;65.70;;;;;;5034001;28;20026;-73
2022/04/12 12:18:00;;;;;;;2.63;1.27;;;17.30;65.60;;;;;;5032050;28;20021;-73
2022/04/12 12:20:27;;;;;;;1.38;0.80;;;17.30;65.70;;;;;;5012919;28;20018;-73
2022/04/12 12:23:00;;;;;;;2.67;1.10;;;17.30;65.60;;;;;;5014184;28;20546;-73
2022/04/12 12:25:54;;;;;;;3.17;1.23;;;17.30;65.60;;;;;;5012808;28;20045;-73
2022/04/12 12:28:24;;;;;;;2.28;1.13;;;17.30;65.50;;;;;;5014044;28;20040;-73
2022/04/12 12:31:03;;;;;;;2.33;1.17;;;17.30;65.60;;;;;;5012857;28;20026;-73
2022/04/12 12:33:38;;;;;;;2.75;1.35;;;17.30;65.50;;;;;;5012777;28;20025;-73
2022/04/12 12:36:15;;;;;;;2.63;1.20;;;17.30;65.50;;;;;;5012765;28;20114;-73
2022/04/12 12:38:42;;;;;;;2.25;1.08;;;17.20;65.50;;;;;;5013986;28;20032;-73
2022/04/12 12:41:08;;;;;;;2.60;0.85;;;17.30;65.60;;;;;;5013720;28;20046;-73
2022/04/12 12:43:34;;;;;;;1.63;1.20;;;17.20;65.60;;;;;;5013971;28;20058;-73
2022/04/12 12:46:06;;;;;;;1.42;1.10;;;17.20;65.50;;;;;;5013747;28;20129;-73
2022/04/12 12:48:32;;;;;;;2.80;1.38;;;17.30;65.50;;;;;;5012432;28;20029;-73
2022/04/12 12:51:02;;;;;;;2.42;1.20;;;17.30;65.50;;;;;;5012579;28;20523;-73